sensor_id;sensor_type;location;lat;lon;timestamp;temperature;humidity
17701;DHT22;8969;48.576;12.580;2023-02-02T00:01:45;4.60;99.90
17701;DHT22;8969;48.576;12.580;2023-02-02T00:04:15;4.50;99.90
17701;DHT22;8969;48.576;12.580;2023-02-02T00:06:44;4.50;99.90
17701;DHT22;8969;48.576;12.580;2023-02-02T00:09:15;4.50;99.90
17701;DHT22;8969;48.576;12.580;2023-02-02T00:11:45;4.50;99.90
17701;DHT22;8969;48.576;12.580;2023-02-02T00:14:15;4.50;99.90
17701;DHT22;8969;48.576;12.580;2023-02-02T00:16:44;4.50;99.90
17701;DHT22;8969;48.576;12.580;2023-02-02T00:19:15;4.50;99.90
17701;DHT22;8969;48.576;12.580;2023-02-02T00:21:44;4.50;99.90
17701;DHT22;8969;48.576;12.580;2023-02-02T00:24:15;4.50;99.90
17701;DHT22;8969;48.576;12.580;2023-02-02T00:26:48;4.50;99.90
17701;DHT22;8969;48.576;12.580;2023-02-02T00:29:20;4.50;99.90
17701;DHT22;8969;48.576;12.580;2023-02-02T00:31:49;4.50;99.90
17701;DHT22;8969;48.576;12.580;2023-02-02T00:34:18;4.50;99.90
17701;DHT22;8969;48.576;12.580;2023-02-02T00:36:47;4.50;99.90
17701;DHT22;8969;48.576;12.580;2023-02-02T00:39:18;4.50;99.90
17701;DHT22;8969;48.576;12.580;2023-02-02T00:41:53;4.50;99.90
17701;DHT22;8969;48.576;12.580;2023-02-02T00:44:21;4.50;99.90
17701;DHT22;8969;48.576;12.580;2023-02-02T00:47:08;4.50;99.90
17701;DHT22;8969;48.576;12.580;2023-02-02T00:49:36;4.50;99.90
17701;DHT22;8969;48.576;12.580;2023-02-02T00:52:04;4.50;99.90
17701;DHT22;8969;48.576;12.580;2023-02-02T00:54:32;4.50;99.90
17701;DHT22;8969;48.576;12.580;2023-02-02T00:57:03;4.50;99.90
17701;DHT22;8969;48.576;12.580;2023-02-02T00:59:31;4.50;99.90
17701;DHT22;8969;48.576;12.580;2023-02-02T01:01:59;4.50;99.90
17701;DHT22;8969;48.576;12.580;2023-02-02T01:04:27;4.50;99.90
17701;DHT22;8969;48.576;12.580;2023-02-02T01:06:56;4.50;99.90
17701;DHT22;8969;48.576;12.580;2023-02-02T01:09:25;4.50;99.90
17701;DHT22;8969;48.576;12.580;2023-02-02T01:11:53;4.50;99.90
17701;DHT22;8969;48.576;12.580;2023-02-02T01:14:25;4.50;99.90
17701;DHT22;8969;48.576;12.580;2023-02-02T01:16:55;4.50;99.90
17701;DHT22;8969;48.576;12.580;2023-02-02T01:19:25;4.60;99.90
17701;DHT22;8969;48.576;12.580;2023-02-02T01:21:53;4.60;99.90
17701;DHT22;8969;48.576;12.580;2023-02-02T01:24:21;4.60;99.90
17701;DHT22;8969;48.576;12.580;2023-02-02T01:26:49;4.50;99.90
17701;DHT22;8969;48.576;12.580;2023-02-02T01:29:17;4.60;99.90
17701;DHT22;8969;48.576;12.580;2023-02-02T01:31:48;4.60;99.90
17701;DHT22;8969;48.576;12.580;2023-02-02T01:34:16;4.60;99.90
17701;DHT22;8969;48.576;12.580;2023-02-02T01:36:44;4.60;99.90
17701;DHT22;8969;48.576;12.580;2023-02-02T01:39:13;4.60;99.90
17701;DHT22;8969;48.576;12.580;2023-02-02T01:41:42;4.60;99.90
17701;DHT22;8969;48.576;12.580;2023-02-02T01:47:18;4.50;99.90
17701;DHT22;8969;48.576;12.580;2023-02-02T01:49:49;4.50;99.90
17701;DHT22;8969;48.576;12.580;2023-02-02T01:52:19;4.50;99.90
17701;DHT22;8969;48.576;12.580;2023-02-02T01:54:51;4.50;99.90
17701;DHT22;8969;48.576;12.580;2023-02-02T01:57:24;4.40;99.90
17701;DHT22;8969;48.576;12.580;2023-02-02T01:59:55;4.40;99.90
17701;DHT22;8969;48.576;12.580;2023-02-02T02:02:26;4.40;99.90
17701;DHT22;8969;48.576;12.580;2023-02-02T02:04:58;4.40;99.90
17701;DHT22;8969;48.576;12.580;2023-02-02T02:07:28;4.40;99.90
17701;DHT22;8969;48.576;12.580;2023-02-02T02:09:58;4.30;99.90
17701;DHT22;8969;48.576;12.580;2023-02-02T02:12:26;4.30;99.90
17701;DHT22;8969;48.576;12.580;2023-02-02T02:14:54;4.30;99.90
17701;DHT22;8969;48.576;12.580;2023-02-02T02:17:52;4.30;99.90
17701;DHT22;8969;48.576;12.580;2023-02-02T02:20:54;4.20;99.90
17701;DHT22;8969;48.576;12.580;2023-02-02T02:24:10;4.20;99.90
17701;DHT22;8969;48.576;12.580;2023-02-02T02:27:27;4.20;99.90
17701;DHT22;8969;48.576;12.580;2023-02-02T02:30:24;4.10;99.90
17701;DHT22;8969;48.576;12.580;2023-02-02T02:33:01;4.20;99.90
17701;DHT22;8969;48.576;12.580;2023-02-02T02:35:34;4.10;99.90
17701;DHT22;8969;48.576;12.580;2023-02-02T02:38:09;4.10;99.90
17701;DHT22;8969;48.576;12.580;2023-02-02T02:40:44;4.10;99.90
17701;DHT22;8969;48.576;12.580;2023-02-02T02:43:19;4.10;99.90
17701;DHT22;8969;48.576;12.580;2023-02-02T02:45:49;4.00;99.90
17701;DHT22;8969;48.576;12.580;2023-02-02T02:48:19;4.00;99.90
17701;DHT22;8969;48.576;12.580;2023-02-02T02:50:47;4.00;99.90
17701;DHT22;8969;48.576;12.580;2023-02-02T02:53:19;4.00;99.90
17701;DHT22;8969;48.576;12.580;2023-02-02T02:55:55;4.00;99.90
17701;DHT22;8969;48.576;12.580;2023-02-02T02:58:35;4.00;99.90
17701;DHT22;8969;48.576;12.580;2023-02-02T03:01:09;4.00;99.90
17701;DHT22;8969;48.576;12.580;2023-02-02T03:03:53;4.00;99.90
17701;DHT22;8969;48.576;12.580;2023-02-02T03:06:28;4.00;99.90
17701;DHT22;8969;48.576;12.580;2023-02-02T03:09:04;4.00;99.90
17701;DHT22;8969;48.576;12.580;2023-02-02T03:11:34;4.00;99.90
17701;DHT22;8969;48.576;12.580;2023-02-02T03:14:03;4.00;99.90
17701;DHT22;8969;48.576;12.580;2023-02-02T03:16:36;3.90;99.90
17701;DHT22;8969;48.576;12.580;2023-02-02T03:19:06;4.00;99.90
17701;DHT22;8969;48.576;12.580;2023-02-02T03:21:35;3.90;99.90
17701;DHT22;8969;48.576;12.580;2023-02-02T03:24:03;3.90;99.90
17701;DHT22;8969;48.576;12.580;2023-02-02T03:26:31;3.90;99.90
17701;DHT22;8969;48.576;12.580;2023-02-02T03:29:00;4.00;99.90
17701;DHT22;8969;48.576;12.580;2023-02-02T03:31:29;3.90;99.90
17701;DHT22;8969;48.576;12.580;2023-02-02T03:33:57;3.90;99.90
17701;DHT22;8969;48.576;12.580;2023-02-02T03:36:26;3.90;99.90
17701;DHT22;8969;48.576;12.580;2023-02-02T03:38:55;3.90;99.90
17701;DHT22;8969;48.576;12.580;2023-02-02T03:41:24;4.00;99.90
17701;DHT22;8969;48.576;12.580;2023-02-02T03:43:52;3.90;99.90
17701;DHT22;8969;48.576;12.580;2023-02-02T03:46:20;3.90;99.90
17701;DHT22;8969;48.576;12.580;2023-02-02T03:48:49;3.90;99.90
17701;DHT22;8969;48.576;12.580;2023-02-02T03:51:17;3.90;99.90
17701;DHT22;8969;48.576;12.580;2023-02-02T03:53:46;3.90;99.90
17701;DHT22;8969;48.576;12.580;2023-02-02T03:56:15;3.90;99.90
17701;DHT22;8969;48.576;12.580;2023-02-02T03:58:45;3.80;99.90
17701;DHT22;8969;48.576;12.580;2023-02-02T04:01:14;3.80;99.90
17701;DHT22;8969;48.576;12.580;2023-02-02T04:03:42;3.90;99.90
17701;DHT22;8969;48.576;12.580;2023-02-02T04:06:12;3.80;99.90
17701;DHT22;8969;48.576;12.580;2023-02-02T04:08:40;3.80;99.90
17701;DHT22;8969;48.576;12.580;2023-02-02T04:11:10;3.80;99.90
17701;DHT22;8969;48.576;12.580;2023-02-02T04:13:40;3.80;99.90
17701;DHT22;8969;48.576;12.580;2023-02-02T04:16:10;3.70;99.90
17701;DHT22;8969;48.576;12.580;2023-02-02T04:18:39;3.70;99.90
17701;DHT22;8969;48.576;12.580;2023-02-02T04:21:08;3.70;99.90
17701;DHT22;8969;48.576;12.580;2023-02-02T04:23:37;3.70;99.90
17701;DHT22;8969;48.576;12.580;2023-02-02T04:26:05;3.60;99.90
17701;DHT22;8969;48.576;12.580;2023-02-02T04:28:36;3.60;99.90
17701;DHT22;8969;48.576;12.580;2023-02-02T04:31:05;3.60;99.90
17701;DHT22;8969;48.576;12.580;2023-02-02T04:33:34;3.40;99.90
17701;DHT22;8969;48.576;12.580;2023-02-02T04:36:03;3.40;99.90
17701;DHT22;8969;48.576;12.580;2023-02-02T04:38:32;3.10;99.90
17701;DHT22;8969;48.576;12.580;2023-02-02T04:41:05;3.00;99.90
17701;DHT22;8969;48.576;12.580;2023-02-02T04:43:36;2.90;99.90
17701;DHT22;8969;48.576;12.580;2023-02-02T04:46:05;2.90;99.90
17701;DHT22;8969;48.576;12.580;2023-02-02T04:48:34;2.90;99.90
17701;DHT22;8969;48.576;12.580;2023-02-02T04:51:04;2.70;99.90
17701;DHT22;8969;48.576;12.580;2023-02-02T04:53:33;2.70;99.90
17701;DHT22;8969;48.576;12.580;2023-02-02T04:56:04;2.70;99.90
17701;DHT22;8969;48.576;12.580;2023-02-02T04:58:35;2.60;99.90
17701;DHT22;8969;48.576;12.580;2023-02-02T05:01:09;2.60;99.90
17701;DHT22;8969;48.576;12.580;2023-02-02T05:03:41;2.60;99.90
17701;DHT22;8969;48.576;12.580;2023-02-02T05:06:11;2.50;99.90
17701;DHT22;8969;48.576;12.580;2023-02-02T05:08:42;2.50;99.90
17701;DHT22;8969;48.576;12.580;2023-02-02T05:11:12;2.40;99.90
17701;DHT22;8969;48.576;12.580;2023-02-02T05:13:46;2.50;99.90
17701;DHT22;8969;48.576;12.580;2023-02-02T05:16:15;2.50;99.90
17701;DHT22;8969;48.576;12.580;2023-02-02T05:18:48;2.50;99.90
17701;DHT22;8969;48.576;12.580;2023-02-02T05:21:16;2.50;99.90
17701;DHT22;8969;48.576;12.580;2023-02-02T05:23:44;2.50;99.90
17701;DHT22;8969;48.576;12.580;2023-02-02T05:26:15;2.50;99.90
17701;DHT22;8969;48.576;12.580;2023-02-02T05:28:45;2.50;99.90
17701;DHT22;8969;48.576;12.580;2023-02-02T05:31:14;2.50;99.90
17701;DHT22;8969;48.576;12.580;2023-02-02T05:33:43;2.50;99.90
17701;DHT22;8969;48.576;12.580;2023-02-02T05:36:11;2.50;99.90
17701;DHT22;8969;48.576;12.580;2023-02-02T05:38:40;2.50;99.90
17701;DHT22;8969;48.576;12.580;2023-02-02T05:41:10;2.50;99.90
17701;DHT22;8969;48.576;12.580;2023-02-02T05:43:40;2.50;99.90
17701;DHT22;8969;48.576;12.580;2023-02-02T05:46:12;2.40;99.90
17701;DHT22;8969;48.576;12.580;2023-02-02T05:48:40;2.40;99.90
17701;DHT22;8969;48.576;12.580;2023-02-02T05:51:14;2.40;99.90
17701;DHT22;8969;48.576;12.580;2023-02-02T05:53:43;2.40;99.90
17701;DHT22;8969;48.576;12.580;2023-02-02T05:56:13;2.40;99.90
17701;DHT22;8969;48.576;12.580;2023-02-02T05:58:42;2.40;99.90
17701;DHT22;8969;48.576;12.580;2023-02-02T06:01:14;2.40;99.90
17701;DHT22;8969;48.576;12.580;2023-02-02T06:03:45;2.40;99.90
17701;DHT22;8969;48.576;12.580;2023-02-02T06:06:16;2.40;99.90
17701;DHT22;8969;48.576;12.580;2023-02-02T06:08:44;2.40;99.90
17701;DHT22;8969;48.576;12.580;2023-02-02T06:11:15;2.40;99.90
17701;DHT22;8969;48.576;12.580;2023-02-02T06:13:44;2.40;99.90
17701;DHT22;8969;48.576;12.580;2023-02-02T06:16:15;2.40;99.90
17701;DHT22;8969;48.576;12.580;2023-02-02T06:18:43;2.40;99.90
17701;DHT22;8969;48.576;12.580;2023-02-02T06:21:13;2.40;99.90
17701;DHT22;8969;48.576;12.580;2023-02-02T06:23:42;2.40;99.90
17701;DHT22;8969;48.576;12.580;2023-02-02T06:26:12;2.30;99.90
17701;DHT22;8969;48.576;12.580;2023-02-02T06:28:42;2.30;99.90
17701;DHT22;8969;48.576;12.580;2023-02-02T06:31:11;2.30;99.90
17701;DHT22;8969;48.576;12.580;2023-02-02T06:33:42;2.30;99.90
17701;DHT22;8969;48.576;12.580;2023-02-02T06:36:11;2.30;99.90
17701;DHT22;8969;48.576;12.580;2023-02-02T06:38:42;2.30;99.90
17701;DHT22;8969;48.576;12.580;2023-02-02T06:41:10;2.30;99.90
17701;DHT22;8969;48.576;12.580;2023-02-02T06:43:39;2.30;99.90
17701;DHT22;8969;48.576;12.580;2023-02-02T06:46:09;2.30;99.90
17701;DHT22;8969;48.576;12.580;2023-02-02T06:48:38;2.30;99.90
17701;DHT22;8969;48.576;12.580;2023-02-02T06:51:08;2.30;99.90
17701;DHT22;8969;48.576;12.580;2023-02-02T06:53:37;2.30;99.90
17701;DHT22;8969;48.576;12.580;2023-02-02T06:56:06;2.30;99.90
17701;DHT22;8969;48.576;12.580;2023-02-02T06:58:36;2.30;99.90
17701;DHT22;8969;48.576;12.580;2023-02-02T07:01:07;2.30;99.90
17701;DHT22;8969;48.576;12.580;2023-02-02T07:03:36;2.20;99.90
17701;DHT22;8969;48.576;12.580;2023-02-02T07:06:12;2.30;99.90
17701;DHT22;8969;48.576;12.580;2023-02-02T07:08:41;2.30;99.90
17701;DHT22;8969;48.576;12.580;2023-02-02T07:11:10;2.20;99.90
17701;DHT22;8969;48.576;12.580;2023-02-02T07:13:44;2.30;99.90
17701;DHT22;8969;48.576;12.580;2023-02-02T07:16:13;2.30;99.90
17701;DHT22;8969;48.576;12.580;2023-02-02T07:19:03;2.30;99.90
17701;DHT22;8969;48.576;12.580;2023-02-02T07:21:33;2.20;99.90
17701;DHT22;8969;48.576;12.580;2023-02-02T07:24:04;2.20;99.90
17701;DHT22;8969;48.576;12.580;2023-02-02T07:26:34;2.20;99.90
17701;DHT22;8969;48.576;12.580;2023-02-02T07:29:03;2.20;99.90
17701;DHT22;8969;48.576;12.580;2023-02-02T07:31:31;2.20;99.90
17701;DHT22;8969;48.576;12.580;2023-02-02T07:34:03;2.30;99.90
17701;DHT22;8969;48.576;12.580;2023-02-02T07:36:33;2.30;99.90
17701;DHT22;8969;48.576;12.580;2023-02-02T07:39:03;2.20;99.90
17701;DHT22;8969;48.576;12.580;2023-02-02T07:41:36;2.30;99.90
17701;DHT22;8969;48.576;12.580;2023-02-02T07:44:13;2.30;99.90
17701;DHT22;8969;48.576;12.580;2023-02-02T07:46:45;2.30;99.90
17701;DHT22;8969;48.576;12.580;2023-02-02T07:49:16;2.30;99.90
17701;DHT22;8969;48.576;12.580;2023-02-02T07:51:47;2.30;99.90
17701;DHT22;8969;48.576;12.580;2023-02-02T07:54:16;2.30;99.90
17701;DHT22;8969;48.576;12.580;2023-02-02T07:56:45;2.30;99.90
17701;DHT22;8969;48.576;12.580;2023-02-02T07:59:14;2.30;99.90
17701;DHT22;8969;48.576;12.580;2023-02-02T08:01:43;2.30;99.90
17701;DHT22;8969;48.576;12.580;2023-02-02T08:04:13;2.30;99.90
17701;DHT22;8969;48.576;12.580;2023-02-02T08:06:46;2.30;99.90
17701;DHT22;8969;48.576;12.580;2023-02-02T08:09:17;2.30;99.90
17701;DHT22;8969;48.576;12.580;2023-02-02T08:11:48;2.40;99.90
17701;DHT22;8969;48.576;12.580;2023-02-02T08:14:19;2.30;99.90
17701;DHT22;8969;48.576;12.580;2023-02-02T08:16:48;2.30;99.90
17701;DHT22;8969;48.576;12.580;2023-02-02T08:19:17;2.30;99.90
17701;DHT22;8969;48.576;12.580;2023-02-02T08:21:47;2.30;99.90
17701;DHT22;8969;48.576;12.580;2023-02-02T08:24:18;2.30;99.90
17701;DHT22;8969;48.576;12.580;2023-02-02T08:26:46;2.30;99.90
17701;DHT22;8969;48.576;12.580;2023-02-02T08:29:16;2.40;99.90
17701;DHT22;8969;48.576;12.580;2023-02-02T08:31:46;2.40;99.90
17701;DHT22;8969;48.576;12.580;2023-02-02T08:34:14;2.30;99.90
17701;DHT22;8969;48.576;12.580;2023-02-02T08:36:43;2.40;99.90
17701;DHT22;8969;48.576;12.580;2023-02-02T08:39:12;2.40;99.90
17701;DHT22;8969;48.576;12.580;2023-02-02T08:41:41;2.40;99.90
17701;DHT22;8969;48.576;12.580;2023-02-02T08:44:12;2.40;99.90
17701;DHT22;8969;48.576;12.580;2023-02-02T08:46:41;2.40;99.90
17701;DHT22;8969;48.576;12.580;2023-02-02T08:49:12;2.40;99.90
17701;DHT22;8969;48.576;12.580;2023-02-02T08:51:41;2.40;99.90
17701;DHT22;8969;48.576;12.580;2023-02-02T08:54:13;2.40;99.90
17701;DHT22;8969;48.576;12.580;2023-02-02T08:56:41;2.40;99.90
17701;DHT22;8969;48.576;12.580;2023-02-02T08:59:10;2.40;99.90
17701;DHT22;8969;48.576;12.580;2023-02-02T09:01:38;2.40;99.90
17701;DHT22;8969;48.576;12.580;2023-02-02T09:04:12;2.40;99.90
17701;DHT22;8969;48.576;12.580;2023-02-02T09:06:44;2.40;99.90
17701;DHT22;8969;48.576;12.580;2023-02-02T09:09:17;2.40;99.90
17701;DHT22;8969;48.576;12.580;2023-02-02T09:11:45;2.40;99.90
17701;DHT22;8969;48.576;12.580;2023-02-02T09:14:15;2.30;99.90
17701;DHT22;8969;48.576;12.580;2023-02-02T09:16:47;2.40;99.90
17701;DHT22;8969;48.576;12.580;2023-02-02T09:19:15;2.40;99.90
17701;DHT22;8969;48.576;12.580;2023-02-02T09:21:47;2.30;99.90
17701;DHT22;8969;48.576;12.580;2023-02-02T09:24:19;2.30;99.90
17701;DHT22;8969;48.576;12.580;2023-02-02T09:26:47;2.30;99.90
17701;DHT22;8969;48.576;12.580;2023-02-02T09:29:16;2.30;99.90
17701;DHT22;8969;48.576;12.580;2023-02-02T09:31:44;2.30;99.90
17701;DHT22;8969;48.576;12.580;2023-02-02T09:34:14;2.30;99.90
17701;DHT22;8969;48.576;12.580;2023-02-02T09:36:45;2.40;99.90
17701;DHT22;8969;48.576;12.580;2023-02-02T09:39:14;2.40;99.90
17701;DHT22;8969;48.576;12.580;2023-02-02T09:42:01;2.40;99.90
17701;DHT22;8969;48.576;12.580;2023-02-02T09:44:57;2.40;99.90
17701;DHT22;8969;48.576;12.580;2023-02-02T09:50:38;2.40;99.90
17701;DHT22;8969;48.576;12.580;2023-02-02T09:53:17;2.40;99.90
17701;DHT22;8969;48.576;12.580;2023-02-02T09:55:49;2.40;99.90
17701;DHT22;8969;48.576;12.580;2023-02-02T09:58:23;2.40;99.90
17701;DHT22;8969;48.576;12.580;2023-02-02T10:00:57;2.40;99.90
17701;DHT22;8969;48.576;12.580;2023-02-02T10:03:35;2.40;99.90
17701;DHT22;8969;48.576;12.580;2023-02-02T10:06:14;2.40;99.90
17701;DHT22;8969;48.576;12.580;2023-02-02T10:08:48;2.40;99.90
17701;DHT22;8969;48.576;12.580;2023-02-02T10:11:30;2.40;99.90
17701;DHT22;8969;48.576;12.580;2023-02-02T10:14:07;2.40;99.90
17701;DHT22;8969;48.576;12.580;2023-02-02T10:16:40;2.50;99.90
17701;DHT22;8969;48.576;12.580;2023-02-02T10:19:10;2.40;99.90
17701;DHT22;8969;48.576;12.580;2023-02-02T10:21:45;2.40;99.90
17701;DHT22;8969;48.576;12.580;2023-02-02T10:24:17;2.50;99.90
17701;DHT22;8969;48.576;12.580;2023-02-02T10:26:51;2.50;99.90
17701;DHT22;8969;48.576;12.580;2023-02-02T10:29:31;2.50;99.90
17701;DHT22;8969;48.576;12.580;2023-02-02T10:32:21;2.40;99.90
17701;DHT22;8969;48.576;12.580;2023-02-02T10:35:04;2.50;99.90
17701;DHT22;8969;48.576;12.580;2023-02-02T10:37:44;2.40;99.90
17701;DHT22;8969;48.576;12.580;2023-02-02T10:40:33;2.50;99.90
17701;DHT22;8969;48.576;12.580;2023-02-02T10:43:24;2.50;99.90
17701;DHT22;8969;48.576;12.580;2023-02-02T10:46:20;2.50;99.90
17701;DHT22;8969;48.576;12.580;2023-02-02T10:49:20;2.60;99.90
17701;DHT22;8969;48.576;12.580;2023-02-02T10:51:55;2.60;99.90
17701;DHT22;8969;48.576;12.580;2023-02-02T10:57:41;2.60;99.90
17701;DHT22;8969;48.576;12.580;2023-02-02T11:00:18;2.60;99.90
17701;DHT22;8969;48.576;12.580;2023-02-02T11:02:51;2.60;99.90
17701;DHT22;8969;48.576;12.580;2023-02-02T11:05:22;2.60;99.90
17701;DHT22;8969;48.576;12.580;2023-02-02T11:08:14;2.60;99.90
17701;DHT22;8969;48.576;12.580;2023-02-02T11:10:43;2.60;99.90
17701;DHT22;8969;48.576;12.580;2023-02-02T11:13:21;2.70;99.90
17701;DHT22;8969;48.576;12.580;2023-02-02T11:15:50;2.60;99.90
17701;DHT22;8969;48.576;12.580;2023-02-02T11:18:28;2.60;99.90
17701;DHT22;8969;48.576;12.580;2023-02-02T11:20:58;2.60;99.90
17701;DHT22;8969;48.576;12.580;2023-02-02T11:23:27;2.60;99.90
17701;DHT22;8969;48.576;12.580;2023-02-02T11:26:00;2.60;99.90
17701;DHT22;8969;48.576;12.580;2023-02-02T11:28:34;2.60;99.90
17701;DHT22;8969;48.576;12.580;2023-02-02T11:31:04;2.60;99.90
17701;DHT22;8969;48.576;12.580;2023-02-02T11:33:37;2.60;99.90
17701;DHT22;8969;48.576;12.580;2023-02-02T11:36:18;2.60;99.90
17701;DHT22;8969;48.576;12.580;2023-02-02T11:38:48;2.60;99.90
17701;DHT22;8969;48.576;12.580;2023-02-02T11:41:16;2.60;99.90
17701;DHT22;8969;48.576;12.580;2023-02-02T11:43:48;2.60;99.90
17701;DHT22;8969;48.576;12.580;2023-02-02T11:46:21;2.60;99.90
17701;DHT22;8969;48.576;12.580;2023-02-02T11:48:58;2.60;99.90
17701;DHT22;8969;48.576;12.580;2023-02-02T11:51:28;2.60;99.90
17701;DHT22;8969;48.576;12.580;2023-02-02T11:54:02;2.50;99.90
17701;DHT22;8969;48.576;12.580;2023-02-02T11:56:35;2.50;99.90
17701;DHT22;8969;48.576;12.580;2023-02-02T11:59:08;2.50;99.90
17701;DHT22;8969;48.576;12.580;2023-02-02T12:02:23;2.50;99.90
17701;DHT22;8969;48.576;12.580;2023-02-02T12:07:39;2.50;99.90
17701;DHT22;8969;48.576;12.580;2023-02-02T12:10:15;2.50;99.90
17701;DHT22;8969;48.576;12.580;2023-02-02T12:12:52;2.50;99.90
17701;DHT22;8969;48.576;12.580;2023-02-02T12:15:30;2.50;99.90
17701;DHT22;8969;48.576;12.580;2023-02-02T12:18:10;2.50;99.90
17701;DHT22;8969;48.576;12.580;2023-02-02T12:20:51;2.50;99.90
17701;DHT22;8969;48.576;12.580;2023-02-02T12:23:34;2.50;99.90
17701;DHT22;8969;48.576;12.580;2023-02-02T12:26:24;2.50;99.90
17701;DHT22;8969;48.576;12.580;2023-02-02T12:29:05;2.60;99.90
17701;DHT22;8969;48.576;12.580;2023-02-02T12:31:53;2.60;99.90
17701;DHT22;8969;48.576;12.580;2023-02-02T12:34:35;2.50;99.90
17701;DHT22;8969;48.576;12.580;2023-02-02T12:37:14;2.50;99.90
17701;DHT22;8969;48.576;12.580;2023-02-02T12:39:55;2.60;99.90
17701;DHT22;8969;48.576;12.580;2023-02-02T12:42:40;2.50;99.90
17701;DHT22;8969;48.576;12.580;2023-02-02T12:45:31;2.60;99.90
17701;DHT22;8969;48.576;12.580;2023-02-02T12:48:17;2.50;99.90
17701;DHT22;8969;48.576;12.580;2023-02-02T12:50:59;2.50;99.90
17701;DHT22;8969;48.576;12.580;2023-02-02T12:53:41;2.50;99.90
17701;DHT22;8969;48.576;12.580;2023-02-02T12:56:37;2.50;99.90
17701;DHT22;8969;48.576;12.580;2023-02-02T12:59:14;2.50;99.90
17701;DHT22;8969;48.576;12.580;2023-02-02T13:01:54;2.50;99.90
17701;DHT22;8969;48.576;12.580;2023-02-02T13:04:41;2.50;99.90
17701;DHT22;8969;48.576;12.580;2023-02-02T13:07:30;2.50;99.90
17701;DHT22;8969;48.576;12.580;2023-02-02T13:10:08;2.50;99.90
17701;DHT22;8969;48.576;12.580;2023-02-02T13:12:43;2.50;99.90
17701;DHT22;8969;48.576;12.580;2023-02-02T13:15:18;2.50;99.90
17701;DHT22;8969;48.576;12.580;2023-02-02T13:17:53;2.50;99.90
17701;DHT22;8969;48.576;12.580;2023-02-02T13:20:36;2.50;99.90
17701;DHT22;8969;48.576;12.580;2023-02-02T13:23:08;2.50;99.90
17701;DHT22;8969;48.576;12.580;2023-02-02T13:25:45;2.50;99.90
17701;DHT22;8969;48.576;12.580;2023-02-02T13:28:27;2.50;99.90
17701;DHT22;8969;48.576;12.580;2023-02-02T13:31:02;2.50;99.90
17701;DHT22;8969;48.576;12.580;2023-02-02T13:33:35;2.50;99.90
17701;DHT22;8969;48.576;12.580;2023-02-02T13:36:11;2.40;99.90
17701;DHT22;8969;48.576;12.580;2023-02-02T13:38:42;2.50;99.90
17701;DHT22;8969;48.576;12.580;2023-02-02T13:41:13;2.50;99.90
17701;DHT22;8969;48.576;12.580;2023-02-02T13:43:47;2.50;99.90
17701;DHT22;8969;48.576;12.580;2023-02-02T13:46:26;2.40;99.90
17701;DHT22;8969;48.576;12.580;2023-02-02T13:49:03;2.40;99.90
17701;DHT22;8969;48.576;12.580;2023-02-02T13:52:01;2.50;99.90
17701;DHT22;8969;48.576;12.580;2023-02-02T13:55:03;2.40;99.90
17701;DHT22;8969;48.576;12.580;2023-02-02T13:57:53;2.40;99.90
17701;DHT22;8969;48.576;12.580;2023-02-02T14:00:33;2.40;99.90
17701;DHT22;8969;48.576;12.580;2023-02-02T14:03:15;2.40;99.90
17701;DHT22;8969;48.576;12.580;2023-02-02T14:06:03;2.40;99.90
17701;DHT22;8969;48.576;12.580;2023-02-02T14:08:36;2.30;99.90
17701;DHT22;8969;48.576;12.580;2023-02-02T14:11:11;2.40;99.90
17701;DHT22;8969;48.576;12.580;2023-02-02T14:13:49;2.40;99.90
17701;DHT22;8969;48.576;12.580;2023-02-02T14:16:48;2.30;99.90
17701;DHT22;8969;48.576;12.580;2023-02-02T14:19:48;2.40;99.90
17701;DHT22;8969;48.576;12.580;2023-02-02T14:28:12;2.40;99.90
17701;DHT22;8969;48.576;12.580;2023-02-02T14:31:27;2.30;99.90
17701;DHT22;8969;48.576;12.580;2023-02-02T14:34:34;2.40;99.90
17701;DHT22;8969;48.576;12.580;2023-02-02T14:37:28;2.30;99.90
17701;DHT22;8969;48.576;12.580;2023-02-02T14:40:15;2.30;99.90
17701;DHT22;8969;48.576;12.580;2023-02-02T14:42:54;2.30;99.90
17701;DHT22;8969;48.576;12.580;2023-02-02T14:45:42;2.30;99.90
17701;DHT22;8969;48.576;12.580;2023-02-02T14:48:16;2.30;99.90
17701;DHT22;8969;48.576;12.580;2023-02-02T14:50:48;2.30;99.90
17701;DHT22;8969;48.576;12.580;2023-02-02T14:53:23;2.30;99.90
17701;DHT22;8969;48.576;12.580;2023-02-02T14:55:57;2.20;99.90
17701;DHT22;8969;48.576;12.580;2023-02-02T14:58:29;2.20;99.90
17701;DHT22;8969;48.576;12.580;2023-02-02T15:01:07;2.30;99.90
17701;DHT22;8969;48.576;12.580;2023-02-02T15:03:50;2.30;99.90
17701;DHT22;8969;48.576;12.580;2023-02-02T15:06:28;2.30;99.90
17701;DHT22;8969;48.576;12.580;2023-02-02T15:09:25;2.30;99.90
17701;DHT22;8969;48.576;12.580;2023-02-02T15:15:06;2.40;99.90
17701;DHT22;8969;48.576;12.580;2023-02-02T15:17:49;2.40;99.90
17701;DHT22;8969;48.576;12.580;2023-02-02T15:20:27;2.40;99.90
17701;DHT22;8969;48.576;12.580;2023-02-02T15:22:57;2.30;99.90
17701;DHT22;8969;48.576;12.580;2023-02-02T15:25:32;2.30;99.90
17701;DHT22;8969;48.576;12.580;2023-02-02T15:28:07;2.30;99.90
17701;DHT22;8969;48.576;12.580;2023-02-02T15:30:40;2.30;99.90
17701;DHT22;8969;48.576;12.580;2023-02-02T15:33:23;2.30;99.90
17701;DHT22;8969;48.576;12.580;2023-02-02T15:35:57;2.30;99.90
17701;DHT22;8969;48.576;12.580;2023-02-02T15:38:36;2.30;99.90
17701;DHT22;8969;48.576;12.580;2023-02-02T15:41:11;2.20;99.90
17701;DHT22;8969;48.576;12.580;2023-02-02T15:43:43;2.20;99.90
17701;DHT22;8969;48.576;12.580;2023-02-02T15:46:14;2.20;99.90
17701;DHT22;8969;48.576;12.580;2023-02-02T15:49:14;2.20;99.90
17701;DHT22;8969;48.576;12.580;2023-02-02T15:52:05;2.20;99.90
17701;DHT22;8969;48.576;12.580;2023-02-02T15:54:37;2.10;99.90
17701;DHT22;8969;48.576;12.580;2023-02-02T15:57:22;2.10;99.90
17701;DHT22;8969;48.576;12.580;2023-02-02T15:59:52;2.10;99.90
17701;DHT22;8969;48.576;12.580;2023-02-02T16:02:25;2.10;99.90
17701;DHT22;8969;48.576;12.580;2023-02-02T16:04:54;2.10;99.90
17701;DHT22;8969;48.576;12.580;2023-02-02T16:07:27;2.10;99.90
17701;DHT22;8969;48.576;12.580;2023-02-02T16:10:01;2.10;99.90
17701;DHT22;8969;48.576;12.580;2023-02-02T16:12:30;2.10;99.90
17701;DHT22;8969;48.576;12.580;2023-02-02T16:14:59;2.00;99.90
17701;DHT22;8969;48.576;12.580;2023-02-02T16:17:28;2.10;99.90
17701;DHT22;8969;48.576;12.580;2023-02-02T16:19:59;2.10;99.90
17701;DHT22;8969;48.576;12.580;2023-02-02T16:22:30;2.10;99.90
17701;DHT22;8969;48.576;12.580;2023-02-02T16:25:01;2.00;99.90
17701;DHT22;8969;48.576;12.580;2023-02-02T16:27:30;2.00;99.90
17701;DHT22;8969;48.576;12.580;2023-02-02T16:30:03;2.00;99.90
17701;DHT22;8969;48.576;12.580;2023-02-02T16:32:33;2.00;99.90
17701;DHT22;8969;48.576;12.580;2023-02-02T16:35:05;2.00;99.90
17701;DHT22;8969;48.576;12.580;2023-02-02T16:37:36;2.10;99.90
17701;DHT22;8969;48.576;12.580;2023-02-02T16:40:26;2.00;99.90
17701;DHT22;8969;48.576;12.580;2023-02-02T16:43:04;2.00;99.90
17701;DHT22;8969;48.576;12.580;2023-02-02T16:45:37;2.00;99.90
17701;DHT22;8969;48.576;12.580;2023-02-02T16:48:28;2.00;99.90
17701;DHT22;8969;48.576;12.580;2023-02-02T16:53:59;2.00;99.90